createdAt,value
2022-10-26T00:01:13.268Z,99.90
2022-10-26T00:03:41.151Z,99.90
2022-10-26T00:06:12.398Z,99.90
2022-10-26T00:08:39.532Z,99.90
2022-10-26T00:11:06.769Z,99.90
2022-10-26T00:13:34.127Z,99.90
2022-10-26T00:18:32.514Z,99.90
2022-10-26T00:21:03.045Z,99.90
2022-10-26T00:23:29.871Z,99.90
2022-10-26T00:25:57.144Z,99.90
2022-10-26T00:28:23.961Z,99.90
2022-10-26T00:30:50.683Z,99.90
2022-10-26T00:33:17.858Z,99.90
2022-10-26T00:35:47.212Z,99.90
2022-10-26T00:38:13.896Z,99.90
2022-10-26T00:40:40.646Z,99.90
2022-10-26T00:43:30.651Z,99.90
2022-10-26T00:45:58.749Z,99.90
2022-10-26T00:48:27.372Z,99.90
2022-10-26T00:50:54.756Z,99.90
2022-10-26T00:53:21.458Z,99.90
2022-10-26T00:55:49.816Z,99.90
2022-10-26T00:58:16.949Z,99.90
2022-10-26T01:00:43.936Z,99.90
2022-10-26T01:03:11.421Z,99.90
2022-10-26T01:05:40.146Z,99.90
2022-10-26T01:08:07.541Z,99.90
2022-10-26T01:10:35.217Z,99.90
2022-10-26T01:13:02.281Z,99.90
2022-10-26T01:15:47.915Z,99.90
2022-10-26T01:18:19.849Z,99.90
2022-10-26T01:20:58.966Z,99.90
2022-10-26T01:23:28.664Z,99.90
2022-10-26T01:26:14.198Z,99.90
2022-10-26T01:29:13.542Z,99.90
2022-10-26T01:31:54.089Z,99.90
2022-10-26T01:34:29.925Z,99.90
2022-10-26T01:36:58.313Z,99.90
2022-10-26T01:39:28.124Z,99.90
2022-10-26T01:41:59.638Z,99.90
2022-10-26T01:44:43.473Z,99.90
2022-10-26T01:47:12.683Z,99.90
2022-10-26T01:49:42.368Z,99.90
2022-10-26T01:52:10.116Z,99.90
2022-10-26T01:57:11.112Z,99.90
2022-10-26T01:59:40.759Z,99.90
2022-10-26T02:02:22.827Z,99.90
2022-10-26T02:04:58.661Z,99.90
2022-10-26T02:07:30.593Z,99.90
2022-10-26T02:10:06.878Z,99.90
2022-10-26T02:12:42.157Z,99.90
2022-10-26T02:15:15.219Z,99.90
2022-10-26T02:17:49.102Z,99.90
2022-10-26T02:20:22.790Z,99.90
2022-10-26T02:22:50.864Z,99.90
2022-10-26T02:25:21.056Z,99.90
2022-10-26T02:27:55.464Z,99.90
2022-10-26T02:30:22.170Z,99.90
2022-10-26T02:32:51.881Z,99.90
2022-10-26T02:35:20.521Z,99.90
2022-10-26T02:37:48.173Z,99.90
2022-10-26T02:40:17.804Z,99.90
2022-10-26T02:42:46.022Z,99.90
2022-10-26T02:45:16.431Z,99.90
2022-10-26T02:47:43.326Z,99.90
2022-10-26T02:50:10.109Z,99.90
2022-10-26T02:52:42.193Z,99.90
2022-10-26T02:55:11.398Z,99.90
2022-10-26T02:57:41.960Z,99.90
2022-10-26T03:00:13.415Z,99.90
2022-10-26T03:02:46.126Z,99.90
2022-10-26T03:05:15.142Z,99.90
2022-10-26T03:07:41.793Z,99.90
2022-10-26T03:10:08.676Z,99.90
2022-10-26T03:12:35.366Z,99.90
2022-10-26T03:15:02.302Z,99.90
2022-10-26T03:17:28.960Z,99.90
2022-10-26T03:19:56.225Z,99.90
2022-10-26T03:22:23.119Z,99.90
2022-10-26T03:24:50.024Z,99.90
2022-10-26T03:27:16.682Z,99.90
2022-10-26T03:29:43.334Z,99.90
2022-10-26T03:32:09.982Z,99.90
2022-10-26T03:34:36.647Z,99.90
2022-10-26T03:37:03.295Z,99.90
2022-10-26T03:39:29.983Z,99.90
2022-10-26T03:41:56.762Z,99.90
2022-10-26T03:44:23.597Z,99.90
2022-10-26T03:46:50.252Z,99.90
2022-10-26T03:49:16.925Z,99.90
2022-10-26T03:51:43.556Z,99.90
2022-10-26T03:54:10.289Z,99.90
2022-10-26T03:56:37.076Z,99.90
2022-10-26T03:59:03.881Z,99.90
2022-10-26T04:01:30.682Z,99.90
2022-10-26T04:03:57.414Z,99.90
2022-10-26T04:06:24.161Z,99.90
2022-10-26T04:08:51.970Z,99.90
2022-10-26T04:11:18.644Z,99.90
2022-10-26T04:13:45.372Z,99.90
2022-10-26T04:16:12.050Z,99.90
2022-10-26T04:18:38.686Z,99.90
2022-10-26T04:21:05.543Z,99.90
2022-10-26T04:23:32.177Z,99.90
2022-10-26T04:25:58.928Z,99.90
2022-10-26T04:28:25.731Z,99.90
2022-10-26T04:30:52.372Z,99.90
2022-10-26T04:33:19.034Z,99.90
2022-10-26T04:35:46.272Z,99.90
2022-10-26T04:38:12.977Z,99.90
2022-10-26T04:40:39.866Z,99.90
2022-10-26T04:43:06.824Z,99.90
2022-10-26T04:45:33.913Z,99.90
2022-10-26T04:48:05.455Z,99.90
2022-10-26T04:50:32.639Z,99.90
2022-10-26T04:52:59.400Z,99.90
2022-10-26T04:55:26.142Z,99.90
2022-10-26T04:57:55.890Z,99.90
2022-10-26T05:00:25.176Z,99.90
2022-10-26T05:02:52.010Z,99.90
2022-10-26T05:05:18.683Z,99.90
2022-10-26T05:07:53.142Z,99.90
2022-10-26T05:10:19.928Z,99.90
2022-10-26T05:12:50.626Z,99.90
2022-10-26T05:15:17.308Z,99.90
2022-10-26T05:17:43.952Z,99.90
2022-10-26T05:20:13.571Z,99.90
2022-10-26T05:22:40.868Z,99.90
2022-10-26T05:25:07.798Z,99.90
2022-10-26T05:27:34.506Z,99.90
2022-10-26T05:30:01.266Z,99.90
2022-10-26T05:32:28.092Z,99.90
2022-10-26T05:34:54.725Z,99.90
2022-10-26T05:37:21.370Z,99.90
2022-10-26T05:39:48.025Z,99.90
2022-10-26T05:42:14.683Z,99.90
2022-10-26T05:44:41.460Z,99.90
2022-10-26T05:47:08.114Z,99.90
2022-10-26T05:49:34.752Z,99.90
2022-10-26T05:52:01.479Z,99.90
2022-10-26T05:54:28.132Z,99.90
2022-10-26T05:56:54.977Z,99.90
2022-10-26T05:59:22.146Z,99.90
2022-10-26T06:01:58.119Z,99.90
2022-10-26T06:04:25.135Z,99.90
2022-10-26T06:06:54.380Z,99.90
2022-10-26T06:09:21.279Z,99.90
2022-10-26T06:14:20.035Z,99.90
2022-10-26T06:17:05.907Z,99.90
2022-10-26T06:19:47.489Z,99.90
2022-10-26T06:22:24.328Z,99.90
2022-10-26T06:25:05.505Z,99.90
2022-10-26T06:27:34.996Z,99.90
2022-10-26T06:30:03.709Z,99.90
2022-10-26T06:32:31.072Z,99.90
2022-10-26T06:35:07.712Z,99.90
2022-10-26T06:37:36.301Z,99.90
2022-10-26T06:40:04.280Z,99.90
2022-10-26T06:42:31.886Z,99.90
2022-10-26T06:44:58.664Z,99.90
2022-10-26T06:47:37.385Z,99.90
2022-10-26T06:50:12.574Z,99.90
2022-10-26T06:52:39.198Z,99.90
2022-10-26T06:55:06.405Z,99.90
2022-10-26T06:57:34.875Z,99.90
2022-10-26T07:00:04.602Z,99.90
2022-10-26T07:02:31.446Z,99.90
2022-10-26T07:04:58.294Z,99.90
2022-10-26T07:07:25.663Z,99.90
2022-10-26T07:09:52.444Z,99.90
2022-10-26T07:12:19.131Z,99.90
2022-10-26T07:14:45.831Z,99.90
2022-10-26T07:17:12.595Z,99.90
2022-10-26T07:19:40.488Z,99.90
2022-10-26T07:22:07.223Z,99.90
2022-10-26T07:24:33.889Z,99.90
2022-10-26T07:27:00.570Z,99.90
2022-10-26T07:29:27.409Z,99.90
2022-10-26T07:34:25.664Z,99.90
2022-10-26T07:36:52.552Z,99.90
2022-10-26T07:39:19.264Z,99.90
2022-10-26T07:41:46.760Z,99.90
2022-10-26T07:44:13.816Z,99.90
2022-10-26T07:46:40.460Z,99.90
2022-10-26T07:49:07.209Z,99.90
2022-10-26T07:51:34.265Z,99.90
2022-10-26T07:54:01.022Z,99.90
2022-10-26T07:56:28.853Z,99.90
2022-10-26T07:58:55.709Z,99.90
2022-10-26T08:01:22.820Z,99.90
2022-10-26T08:03:53.740Z,99.90
2022-10-26T08:06:23.774Z,99.90
2022-10-26T08:08:51.988Z,99.90
2022-10-26T08:11:19.183Z,99.90
2022-10-26T08:13:46.362Z,99.90
2022-10-26T08:16:13.521Z,99.90
2022-10-26T08:18:40.396Z,99.90
2022-10-26T08:21:12.317Z,99.90
2022-10-26T08:23:40.924Z,99.90
2022-10-26T08:26:08.095Z,99.90
2022-10-26T08:28:38.108Z,99.90
2022-10-26T08:31:05.138Z,99.90
2022-10-26T08:33:32.202Z,99.90
2022-10-26T08:35:59.989Z,99.90
2022-10-26T08:38:27.054Z,99.90
2022-10-26T08:40:54.023Z,99.90
2022-10-26T08:43:26.493Z,99.90
2022-10-26T08:46:02.957Z,99.90
2022-10-26T08:48:35.862Z,99.90
2022-10-26T08:51:05.716Z,99.90
2022-10-26T08:53:41.966Z,99.90
2022-10-26T08:56:21.417Z,99.90
2022-10-26T08:58:54.573Z,99.90
2022-10-26T09:01:22.342Z,99.90
2022-10-26T09:03:49.551Z,99.90
2022-10-26T09:06:33.125Z,99.90
2022-10-26T09:09:00.082Z,99.90
2022-10-26T09:11:40.688Z,99.90
2022-10-26T09:14:07.370Z,99.90
2022-10-26T09:16:42.784Z,99.90
2022-10-26T09:19:28.262Z,99.90
2022-10-26T09:22:00.357Z,99.90
2022-10-26T09:24:34.898Z,99.90
2022-10-26T09:27:20.097Z,99.90
2022-10-26T09:29:48.203Z,99.90
2022-10-26T09:32:20.236Z,99.90
2022-10-26T09:34:52.168Z,99.90
2022-10-26T09:37:21.211Z,99.90
2022-10-26T09:39:51.855Z,99.90
2022-10-26T09:42:26.071Z,99.90
2022-10-26T09:44:56.802Z,99.90
2022-10-26T09:47:38.110Z,99.90
2022-10-26T09:50:20.502Z,99.90
2022-10-26T09:52:47.622Z,99.90
2022-10-26T09:55:14.701Z,99.90
2022-10-26T09:57:49.215Z,99.90
2022-10-26T10:00:16.726Z,99.90
2022-10-26T10:02:44.353Z,99.90
2022-10-26T10:05:49.906Z,99.90
2022-10-26T10:08:16.177Z,99.90
2022-10-26T10:10:55.239Z,99.90
2022-10-26T10:13:23.314Z,99.90
2022-10-26T10:15:54.628Z,99.90
2022-10-26T10:18:22.922Z,99.90
2022-10-26T10:20:51.456Z,99.90
2022-10-26T10:23:26.337Z,99.90
2022-10-26T10:26:19.617Z,99.90
2022-10-26T10:28:57.170Z,99.90
2022-10-26T10:31:28.269Z,99.90
2022-10-26T10:33:55.683Z,99.90
2022-10-26T10:36:23.820Z,99.90
2022-10-26T10:38:51.824Z,99.90
2022-10-26T10:41:22.603Z,99.90
2022-10-26T10:43:51.890Z,99.90
2022-10-26T10:46:23.221Z,99.90
2022-10-26T10:49:05.218Z,99.90
2022-10-26T10:51:37.576Z,99.90
2022-10-26T10:54:05.110Z,99.90
2022-10-26T10:56:41.809Z,99.90
2022-10-26T10:59:27.421Z,99.90
2022-10-26T11:02:06.586Z,99.90
2022-10-26T11:04:45.677Z,99.90
2022-10-26T11:07:14.165Z,99.90
2022-10-26T11:09:42.832Z,99.90
2022-10-26T11:12:13.537Z,99.90
2022-10-26T11:14:45.186Z,99.90
2022-10-26T11:17:18.152Z,99.90
2022-10-26T11:19:48.729Z,99.90
2022-10-26T11:22:16.984Z,99.90
2022-10-26T11:24:54.514Z,99.90
2022-10-26T11:27:27.456Z,99.90
2022-10-26T11:30:00.231Z,99.90
2022-10-26T11:32:47.597Z,99.90
2022-10-26T11:35:21.868Z,99.90
2022-10-26T11:37:52.602Z,99.90
2022-10-26T11:40:33.579Z,99.90
2022-10-26T11:43:05.550Z,99.90
2022-10-26T11:45:34.536Z,99.90
2022-10-26T11:48:09.883Z,99.90
2022-10-26T11:50:40.103Z,99.90
2022-10-26T11:53:15.353Z,99.90
2022-10-26T11:55:42.364Z,99.90
2022-10-26T11:58:10.861Z,99.90
2022-10-26T12:00:43.619Z,99.90
2022-10-26T12:03:12.074Z,99.90
2022-10-26T12:06:05.346Z,99.90
2022-10-26T12:08:43.620Z,99.90
2022-10-26T12:11:34.713Z,99.90
2022-10-26T12:14:26.324Z,99.90
2022-10-26T12:16:58.912Z,99.90
2022-10-26T12:21:55.525Z,99.90
2022-10-26T12:24:22.235Z,99.90
2022-10-26T12:26:58.999Z,99.90
2022-10-26T12:29:38.216Z,99.90
2022-10-26T12:32:25.131Z,99.90
2022-10-26T12:34:51.783Z,99.90
2022-10-26T12:37:30.555Z,99.90
2022-10-26T12:40:17.256Z,99.90
2022-10-26T12:42:43.938Z,99.90
2022-10-26T12:45:19.279Z,99.90
2022-10-26T12:47:49.398Z,99.90
2022-10-26T12:50:19.649Z,99.90
2022-10-26T12:52:54.680Z,99.90
2022-10-26T12:55:27.766Z,99.90
2022-10-26T12:57:57.452Z,99.90
2022-10-26T13:00:25.449Z,99.90
2022-10-26T13:03:10.947Z,99.90
2022-10-26T13:05:56.644Z,99.90
2022-10-26T13:08:23.337Z,99.90
2022-10-26T13:11:01.631Z,99.90
2022-10-26T13:13:29.344Z,99.90
2022-10-26T13:15:57.264Z,99.90
2022-10-26T13:18:24.084Z,99.90
2022-10-26T13:20:59.734Z,99.90
2022-10-26T13:23:27.658Z,99.90
2022-10-26T13:26:05.256Z,99.90
2022-10-26T13:28:38.052Z,99.90
2022-10-26T13:31:25.040Z,99.90
2022-10-26T13:33:52.329Z,99.90
2022-10-26T13:36:27.674Z,99.90
2022-10-26T13:38:54.617Z,99.90
2022-10-26T13:41:25.790Z,99.90
2022-10-26T13:43:52.792Z,99.90
2022-10-26T13:46:23.385Z,99.90
2022-10-26T13:48:50.637Z,99.90
2022-10-26T13:51:25.075Z,99.90
2022-10-26T13:54:00.143Z,99.90
2022-10-26T13:56:39.996Z,99.90
2022-10-26T13:59:09.800Z,99.90
2022-10-26T14:01:37.053Z,99.90
2022-10-26T14:04:24.122Z,99.90
2022-10-26T14:06:51.586Z,99.90
2022-10-26T14:09:20.043Z,99.60
2022-10-26T14:11:54.035Z,99.20
2022-10-26T14:14:22.408Z,98.40
2022-10-26T14:16:50.270Z,98.00
2022-10-26T14:19:20.405Z,97.60
2022-10-26T14:21:50.251Z,97.60
2022-10-26T14:24:24.861Z,98.20
2022-10-26T14:27:02.631Z,99.70
2022-10-26T14:29:33.023Z,99.90
2022-10-26T14:31:59.661Z,99.90
2022-10-26T14:34:26.636Z,99.90
2022-10-26T14:36:58.701Z,99.90
2022-10-26T14:39:25.385Z,99.90
2022-10-26T14:41:53.213Z,99.90
2022-10-26T14:44:21.199Z,99.90
2022-10-26T14:46:48.002Z,99.90
2022-10-26T14:49:18.079Z,99.90
2022-10-26T14:51:44.830Z,99.90
2022-10-26T14:54:25.304Z,99.90
2022-10-26T14:56:52.408Z,99.90
2022-10-26T14:59:22.139Z,99.90
2022-10-26T15:01:53.720Z,99.90
2022-10-26T15:04:28.175Z,99.90
2022-10-26T15:07:01.427Z,99.90
2022-10-26T15:09:29.978Z,99.90
2022-10-26T15:11:56.673Z,99.90
2022-10-26T15:14:23.328Z,99.90
2022-10-26T15:16:53.179Z,99.90
2022-10-26T15:19:23.736Z,99.90
2022-10-26T15:21:51.210Z,99.90
2022-10-26T15:24:20.887Z,99.90
2022-10-26T15:26:47.835Z,99.90
2022-10-26T15:29:32.953Z,99.90
2022-10-26T15:32:00.405Z,99.90
2022-10-26T15:34:27.118Z,99.90
2022-10-26T15:36:54.024Z,99.90
2022-10-26T15:39:21.040Z,99.90
2022-10-26T15:41:48.368Z,99.90
2022-10-26T15:44:17.762Z,99.90
2022-10-26T15:46:45.842Z,99.90
2022-10-26T15:49:19.802Z,99.90
2022-10-26T15:51:47.815Z,99.90
2022-10-26T15:54:14.970Z,99.90
2022-10-26T15:56:43.747Z,99.90
2022-10-26T15:59:13.702Z,99.90
2022-10-26T16:01:40.544Z,99.90
2022-10-26T16:04:08.659Z,99.90
2022-10-26T16:06:35.749Z,99.90
2022-10-26T16:09:03.771Z,99.90
2022-10-26T16:11:31.011Z,99.90
2022-10-26T16:14:01.088Z,99.90
2022-10-26T16:16:30.515Z,99.90
2022-10-26T16:19:11.702Z,99.90
2022-10-26T16:21:44.067Z,99.90
2022-10-26T16:24:10.851Z,99.90
2022-10-26T16:26:37.574Z,99.90
2022-10-26T16:29:04.309Z,99.90
2022-10-26T16:31:31.013Z,99.90
2022-10-26T16:34:00.343Z,99.90
2022-10-26T16:36:32.839Z,99.90
2022-10-26T16:38:59.716Z,99.90
2022-10-26T16:41:26.532Z,99.90
2022-10-26T16:43:53.231Z,99.90
2022-10-26T16:46:20.891Z,99.90
2022-10-26T16:48:48.695Z,99.90
2022-10-26T16:51:16.872Z,99.90
2022-10-26T16:53:43.635Z,99.90
2022-10-26T16:56:12.072Z,99.90
2022-10-26T16:58:39.215Z,99.90
2022-10-26T17:01:06.732Z,99.90
2022-10-26T17:03:33.907Z,99.90
2022-10-26T17:06:01.564Z,99.90
2022-10-26T17:08:28.536Z,99.90
2022-10-26T17:10:55.464Z,99.90
2022-10-26T17:13:22.167Z,99.90
2022-10-26T17:15:49.189Z,99.90
2022-10-26T17:18:16.210Z,99.90
2022-10-26T17:20:48.500Z,99.90
2022-10-26T17:23:15.203Z,99.90
2022-10-26T17:25:42.179Z,99.90
2022-10-26T17:28:08.999Z,99.90
2022-10-26T17:30:36.270Z,99.90
2022-10-26T17:33:02.989Z,99.90
2022-10-26T17:35:29.742Z,99.90
2022-10-26T17:37:56.449Z,99.90
2022-10-26T17:40:23.215Z,99.90
2022-10-26T17:42:49.935Z,99.90
2022-10-26T17:45:16.709Z,99.90
2022-10-26T17:47:43.434Z,99.90
2022-10-26T17:50:11.576Z,99.90
2022-10-26T17:52:38.234Z,99.90
2022-10-26T17:55:05.133Z,99.90
2022-10-26T17:57:32.549Z,99.90
2022-10-26T17:59:59.199Z,99.90
2022-10-26T18:02:26.663Z,99.90
2022-10-26T18:04:53.448Z,99.90
2022-10-26T18:07:20.139Z,99.90
2022-10-26T18:09:46.868Z,99.90
2022-10-26T18:12:13.533Z,99.90
2022-10-26T18:14:40.378Z,99.90
2022-10-26T18:17:07.178Z,99.90
2022-10-26T18:19:33.886Z,99.90
2022-10-26T18:22:00.695Z,99.90
2022-10-26T18:24:27.393Z,99.90
2022-10-26T18:26:54.122Z,99.90
2022-10-26T18:29:20.944Z,99.90
2022-10-26T18:31:47.706Z,99.90
2022-10-26T18:34:14.421Z,99.90
2022-10-26T18:36:41.432Z,99.90
2022-10-26T18:39:08.231Z,99.90
2022-10-26T18:41:35.001Z,99.90
2022-10-26T18:44:02.253Z,99.90
2022-10-26T18:46:30.209Z,99.90
2022-10-26T18:48:58.019Z,99.90
2022-10-26T18:51:26.174Z,99.90
2022-10-26T18:53:52.852Z,99.90
2022-10-26T18:56:20.732Z,99.90
2022-10-26T18:58:48.866Z,99.90
2022-10-26T19:01:26.718Z,99.90
2022-10-26T19:03:54.765Z,99.90
2022-10-26T19:06:26.046Z,99.90
2022-10-26T19:08:52.890Z,99.90
2022-10-26T19:11:20.738Z,99.90
2022-10-26T19:13:47.469Z,99.90
2022-10-26T19:16:21.919Z,99.90
2022-10-26T19:19:00.185Z,99.90
2022-10-26T19:21:28.679Z,99.90
2022-10-26T19:23:56.966Z,99.90
2022-10-26T19:26:24.961Z,99.90
2022-10-26T19:28:59.104Z,99.90
2022-10-26T19:31:27.330Z,99.90
2022-10-26T19:33:56.459Z,99.90
2022-10-26T19:36:23.340Z,99.90
2022-10-26T19:38:50.088Z,99.90
2022-10-26T19:41:17.117Z,99.90
2022-10-26T19:43:44.272Z,99.90
2022-10-26T19:46:11.644Z,99.90
2022-10-26T19:48:38.967Z,99.90
2022-10-26T19:51:05.865Z,99.90
2022-10-26T19:53:32.742Z,99.90
2022-10-26T19:56:00.336Z,99.90
2022-10-26T19:58:28.118Z,99.90
2022-10-26T20:03:28.949Z,99.90
2022-10-26T20:05:59.606Z,99.90
2022-10-26T20:08:26.534Z,99.90
2022-10-26T20:10:54.501Z,99.90
2022-10-26T20:13:21.611Z,99.90
2022-10-26T20:15:49.171Z,99.90
2022-10-26T20:18:15.894Z,99.90
2022-10-26T20:20:42.564Z,99.90
2022-10-26T20:23:09.876Z,99.90
2022-10-26T20:25:37.443Z,99.90
2022-10-26T20:28:04.903Z,99.90
2022-10-26T20:30:32.351Z,99.90
2022-10-26T20:32:59.533Z,99.90
2022-10-26T20:35:26.266Z,99.90
2022-10-26T20:37:53.758Z,99.90
2022-10-26T20:40:24.032Z,99.90
2022-10-26T20:42:52.315Z,99.90
2022-10-26T20:45:23.675Z,99.90
2022-10-26T20:47:50.819Z,99.90
2022-10-26T20:50:18.944Z,99.90
2022-10-26T20:53:03.868Z,99.90
2022-10-26T20:55:33.545Z,99.90
2022-10-26T20:58:12.366Z,99.90
2022-10-26T21:00:42.909Z,99.90
2022-10-26T21:03:10.594Z,99.90
2022-10-26T21:05:37.511Z,99.90
2022-10-26T21:08:04.294Z,99.90
2022-10-26T21:10:32.018Z,99.90
2022-10-26T21:12:58.698Z,99.90
2022-10-26T21:15:25.543Z,99.90
2022-10-26T21:17:52.607Z,99.90
2022-10-26T21:20:19.968Z,99.90
2022-10-26T21:22:46.879Z,99.90
2022-10-26T21:25:13.970Z,99.90
2022-10-26T21:27:40.847Z,99.90
2022-10-26T21:30:08.074Z,99.90
2022-10-26T21:32:34.888Z,99.90
2022-10-26T21:35:01.746Z,99.90
2022-10-26T21:37:28.674Z,99.90
2022-10-26T21:39:55.330Z,99.90
2022-10-26T21:42:22.191Z,99.90
2022-10-26T21:44:49.044Z,99.90
2022-10-26T21:51:35.027Z,99.90
2022-10-26T21:54:01.968Z,99.90
2022-10-26T21:56:28.848Z,99.90
2022-10-26T21:58:55.549Z,99.90
2022-10-26T22:01:22.910Z,99.90
2022-10-26T22:03:49.875Z,99.90
2022-10-26T22:06:21.432Z,99.90
2022-10-26T22:08:49.041Z,99.90
2022-10-26T22:11:20.351Z,99.90
2022-10-26T22:13:47.819Z,99.90
2022-10-26T22:16:16.388Z,99.90
2022-10-26T22:18:44.179Z,99.90
2022-10-26T22:21:11.820Z,99.90
2022-10-26T22:23:39.825Z,99.90
2022-10-26T22:26:11.091Z,99.90
2022-10-26T22:28:41.702Z,99.90
2022-10-26T22:31:17.451Z,99.90
2022-10-26T22:33:44.678Z,99.90
2022-10-26T22:36:15.454Z,99.90
2022-10-26T22:38:42.213Z,99.90
2022-10-26T22:41:09.769Z,99.90
2022-10-26T22:43:36.557Z,99.90
2022-10-26T22:46:13.827Z,99.90
2022-10-26T22:48:45.530Z,99.90
2022-10-26T22:51:16.660Z,99.90
2022-10-26T22:53:43.427Z,99.90
2022-10-26T22:56:10.984Z,99.90
2022-10-26T22:58:38.405Z,99.90
2022-10-26T23:01:10.044Z,99.90
2022-10-26T23:03:36.850Z,99.90
2022-10-26T23:06:03.880Z,99.90
2022-10-26T23:08:30.609Z,99.90
2022-10-26T23:11:01.216Z,99.90
2022-10-26T23:13:28.270Z,99.90
2022-10-26T23:15:55.522Z,99.90
2022-10-26T23:18:22.468Z,99.90
2022-10-26T23:20:49.824Z,99.90
2022-10-26T23:23:16.659Z,99.90
2022-10-26T23:25:43.562Z,99.90
2022-10-26T23:28:10.741Z,99.90
2022-10-26T23:30:37.513Z,99.90
2022-10-26T23:33:04.245Z,99.90
2022-10-26T23:35:31.082Z,99.90
2022-10-26T23:37:58.760Z,99.90
2022-10-26T23:40:26.174Z,99.90
2022-10-26T23:42:53.055Z,99.90
2022-10-26T23:45:19.921Z,99.90
2022-10-26T23:47:46.768Z,99.90
2022-10-26T23:50:13.497Z,99.90
2022-10-26T23:52:40.214Z,99.90
2022-10-26T23:55:07.304Z,99.90
2022-10-26T23:57:34.032Z,99.90
